sensor_id;sensor_type;location;lat;lon;timestamp;P1;durP1;ratioP1;P2;durP2;ratioP2
283;SDS011;125;52.516;13.426;2024-01-15T00:01:46;3.73;;;3.53;;
283;SDS011;125;52.516;13.426;2024-01-15T00:04:13;3.43;;;3.13;;
283;SDS011;125;52.516;13.426;2024-01-15T00:06:40;2.27;;;2.10;;
283;SDS011;125;52.516;13.426;2024-01-15T00:09:08;3.83;;;3.63;;
283;SDS011;125;52.516;13.426;2024-01-15T00:11:35;3.53;;;3.23;;
283;SDS011;125;52.516;13.426;2024-01-15T00:14:02;2.90;;;2.70;;
283;SDS011;125;52.516;13.426;2024-01-15T00:16:29;3.10;;;2.90;;
283;SDS011;125;52.516;13.426;2024-01-15T00:18:56;3.53;;;2.33;;
283;SDS011;125;52.516;13.426;2024-01-15T00:21:23;5.37;;;3.07;;
283;SDS011;125;52.516;13.426;2024-01-15T00:23:51;2.60;;;1.77;;
283;SDS011;125;52.516;13.426;2024-01-15T00:26:21;3.77;;;2.17;;
283;SDS011;125;52.516;13.426;2024-01-15T00:28:48;4.73;;;2.20;;
283;SDS011;125;52.516;13.426;2024-01-15T00:31:15;6.73;;;5.60;;
283;SDS011;125;52.516;13.426;2024-01-15T00:33:42;3.43;;;2.13;;
283;SDS011;125;52.516;13.426;2024-01-15T00:36:10;2.17;;;2.00;;
283;SDS011;125;52.516;13.426;2024-01-15T00:38:37;3.47;;;3.27;;
283;SDS011;125;52.516;13.426;2024-01-15T00:41:04;4.40;;;1.93;;
283;SDS011;125;52.516;13.426;2024-01-15T00:43:32;4.43;;;2.97;;
283;SDS011;125;52.516;13.426;2024-01-15T00:46:01;3.20;;;3.00;;
283;SDS011;125;52.516;13.426;2024-01-15T00:48:28;2.23;;;1.83;;
283;SDS011;125;52.516;13.426;2024-01-15T00:50:55;5.93;;;3.83;;
283;SDS011;125;52.516;13.426;2024-01-15T00:53:22;4.03;;;2.93;;
283;SDS011;125;52.516;13.426;2024-01-15T00:55:49;3.60;;;1.90;;
283;SDS011;125;52.516;13.426;2024-01-15T00:58:16;3.37;;;3.17;;
283;SDS011;125;52.516;13.426;2024-01-15T01:00:44;2.27;;;2.07;;
283;SDS011;125;52.516;13.426;2024-01-15T01:03:11;1.67;;;1.57;;
283;SDS011;125;52.516;13.426;2024-01-15T01:05:38;3.33;;;2.77;;
283;SDS011;125;52.516;13.426;2024-01-15T01:08:05;3.50;;;2.40;;
283;SDS011;125;52.516;13.426;2024-01-15T01:10:32;1.83;;;1.73;;
283;SDS011;125;52.516;13.426;2024-01-15T01:12:59;4.57;;;2.77;;
283;SDS011;125;52.516;13.426;2024-01-15T01:15:26;1.80;;;1.70;;
283;SDS011;125;52.516;13.426;2024-01-15T01:17:54;1.90;;;1.40;;
283;SDS011;125;52.516;13.426;2024-01-15T01:20:21;4.27;;;2.87;;
283;SDS011;125;52.516;13.426;2024-01-15T01:22:48;3.90;;;1.53;;
283;SDS011;125;52.516;13.426;2024-01-15T01:25:15;4.90;;;3.00;;
283;SDS011;125;52.516;13.426;2024-01-15T01:27:42;2.30;;;2.03;;
283;SDS011;125;52.516;13.426;2024-01-15T01:30:09;1.77;;;1.13;;
283;SDS011;125;52.516;13.426;2024-01-15T01:32:37;3.93;;;1.60;;
283;SDS011;125;52.516;13.426;2024-01-15T01:35:05;3.80;;;2.43;;
283;SDS011;125;52.516;13.426;2024-01-15T01:37:33;4.93;;;4.03;;
283;SDS011;125;52.516;13.426;2024-01-15T01:40:00;1.50;;;1.40;;
283;SDS011;125;52.516;13.426;2024-01-15T01:42:27;4.33;;;2.70;;
283;SDS011;125;52.516;13.426;2024-01-15T01:44:54;2.20;;;1.77;;
283;SDS011;125;52.516;13.426;2024-01-15T01:47:21;9.30;;;4.67;;
283;SDS011;125;52.516;13.426;2024-01-15T01:49:48;3.83;;;1.90;;
283;SDS011;125;52.516;13.426;2024-01-15T01:52:16;4.13;;;2.53;;
283;SDS011;125;52.516;13.426;2024-01-15T01:54:43;7.70;;;2.93;;
283;SDS011;125;52.516;13.426;2024-01-15T01:57:10;3.10;;;2.97;;
283;SDS011;125;52.516;13.426;2024-01-15T01:59:38;4.43;;;3.87;;
283;SDS011;125;52.516;13.426;2024-01-15T02:02:05;8.33;;;5.63;;
283;SDS011;125;52.516;13.426;2024-01-15T02:04:32;3.93;;;3.73;;
283;SDS011;125;52.516;13.426;2024-01-15T02:07:01;3.93;;;3.30;;
283;SDS011;125;52.516;13.426;2024-01-15T02:09:30;2.50;;;1.67;;
283;SDS011;125;52.516;13.426;2024-01-15T02:11:57;8.77;;;5.10;;
283;SDS011;125;52.516;13.426;2024-01-15T02:14:25;4.57;;;4.27;;
283;SDS011;125;52.516;13.426;2024-01-15T02:16:52;4.57;;;3.67;;
283;SDS011;125;52.516;13.426;2024-01-15T02:19:19;3.47;;;2.63;;
283;SDS011;125;52.516;13.426;2024-01-15T02:21:46;4.97;;;2.67;;
283;SDS011;125;52.516;13.426;2024-01-15T02:24:15;4.80;;;2.90;;
283;SDS011;125;52.516;13.426;2024-01-15T02:26:42;9.80;;;4.67;;
283;SDS011;125;52.516;13.426;2024-01-15T02:29:09;2.70;;;2.50;;
283;SDS011;125;52.516;13.426;2024-01-15T02:31:36;6.27;;;4.10;;
283;SDS011;125;52.516;13.426;2024-01-15T02:34:03;2.27;;;2.13;;
283;SDS011;125;52.516;13.426;2024-01-15T02:36:30;3.00;;;2.80;;
283;SDS011;125;52.516;13.426;2024-01-15T02:38:57;0.97;;;0.93;;
283;SDS011;125;52.516;13.426;2024-01-15T02:41:25;9.83;;;2.80;;
283;SDS011;125;52.516;13.426;2024-01-15T02:43:52;2.77;;;2.50;;
283;SDS011;125;52.516;13.426;2024-01-15T02:46:19;1.90;;;1.50;;
283;SDS011;125;52.516;13.426;2024-01-15T02:48:46;4.10;;;1.60;;
283;SDS011;125;52.516;13.426;2024-01-15T02:51:13;3.57;;;2.80;;
283;SDS011;125;52.516;13.426;2024-01-15T02:53:40;3.43;;;1.47;;
283;SDS011;125;52.516;13.426;2024-01-15T02:56:07;4.50;;;2.07;;
283;SDS011;125;52.516;13.426;2024-01-15T02:58:35;2.13;;;1.30;;
283;SDS011;125;52.516;13.426;2024-01-15T03:01:03;2.67;;;2.20;;
283;SDS011;125;52.516;13.426;2024-01-15T03:03:30;3.73;;;1.30;;
283;SDS011;125;52.516;13.426;2024-01-15T03:05:58;2.40;;;1.13;;
283;SDS011;125;52.516;13.426;2024-01-15T03:08:25;1.73;;;1.63;;
283;SDS011;125;52.516;13.426;2024-01-15T03:10:52;1.77;;;1.70;;
283;SDS011;125;52.516;13.426;2024-01-15T03:13:19;5.53;;;2.90;;
283;SDS011;125;52.516;13.426;2024-01-15T03:15:47;5.40;;;4.43;;
283;SDS011;125;52.516;13.426;2024-01-15T03:18:14;2.37;;;2.00;;
283;SDS011;125;52.516;13.426;2024-01-15T03:20:41;3.47;;;1.70;;
283;SDS011;125;52.516;13.426;2024-01-15T03:23:08;5.23;;;1.37;;
283;SDS011;125;52.516;13.426;2024-01-15T03:25:35;3.63;;;2.20;;
283;SDS011;125;52.516;13.426;2024-01-15T03:28:02;5.77;;;2.80;;
283;SDS011;125;52.516;13.426;2024-01-15T03:30:29;2.10;;;1.80;;
283;SDS011;125;52.516;13.426;2024-01-15T03:32:57;2.73;;;1.80;;
283;SDS011;125;52.516;13.426;2024-01-15T03:35:24;3.70;;;3.30;;
283;SDS011;125;52.516;13.426;2024-01-15T03:37:54;1.00;;;0.90;;
283;SDS011;125;52.516;13.426;2024-01-15T03:40:21;1.27;;;1.13;;
283;SDS011;125;52.516;13.426;2024-01-15T03:42:48;3.40;;;1.93;;
283;SDS011;125;52.516;13.426;2024-01-15T03:45:15;5.13;;;0.90;;
283;SDS011;125;52.516;13.426;2024-01-15T03:47:42;1.63;;;1.17;;
283;SDS011;125;52.516;13.426;2024-01-15T03:50:10;2.13;;;1.53;;
283;SDS011;125;52.516;13.426;2024-01-15T03:52:37;1.93;;;1.80;;
283;SDS011;125;52.516;13.426;2024-01-15T03:55:04;3.27;;;2.13;;
283;SDS011;125;52.516;13.426;2024-01-15T03:57:32;2.20;;;1.30;;
283;SDS011;125;52.516;13.426;2024-01-15T03:59:58;0.90;;;0.90;;
283;SDS011;125;52.516;13.426;2024-01-15T04:02:25;1.50;;;1.40;;
283;SDS011;125;52.516;13.426;2024-01-15T04:04:52;1.37;;;1.33;;
283;SDS011;125;52.516;13.426;2024-01-15T04:07:21;1.43;;;1.07;;
283;SDS011;125;52.516;13.426;2024-01-15T04:09:48;2.07;;;1.87;;
283;SDS011;125;52.516;13.426;2024-01-15T04:12:15;1.50;;;1.40;;
283;SDS011;125;52.516;13.426;2024-01-15T04:14:42;2.03;;;1.93;;
283;SDS011;125;52.516;13.426;2024-01-15T04:17:08;2.40;;;0.63;;
283;SDS011;125;52.516;13.426;2024-01-15T04:19:35;1.63;;;1.20;;
283;SDS011;125;52.516;13.426;2024-01-15T04:22:03;1.73;;;1.50;;
283;SDS011;125;52.516;13.426;2024-01-15T04:24:32;4.87;;;1.60;;
283;SDS011;125;52.516;13.426;2024-01-15T04:26:59;2.90;;;2.40;;
283;SDS011;125;52.516;13.426;2024-01-15T04:29:26;2.20;;;2.00;;
283;SDS011;125;52.516;13.426;2024-01-15T04:31:53;1.43;;;1.20;;
283;SDS011;125;52.516;13.426;2024-01-15T04:34:20;2.60;;;1.60;;
283;SDS011;125;52.516;13.426;2024-01-15T04:36:47;0.70;;;0.43;;
283;SDS011;125;52.516;13.426;2024-01-15T04:39:14;10.20;;;1.93;;
283;SDS011;125;52.516;13.426;2024-01-15T04:41:42;1.03;;;0.93;;
283;SDS011;125;52.516;13.426;2024-01-15T04:44:09;4.63;;;1.50;;
283;SDS011;125;52.516;13.426;2024-01-15T04:46:36;15.43;;;2.30;;
283;SDS011;125;52.516;13.426;2024-01-15T04:49:03;1.57;;;1.53;;
283;SDS011;125;52.516;13.426;2024-01-15T04:51:30;2.17;;;1.50;;
283;SDS011;125;52.516;13.426;2024-01-15T04:53:57;0.80;;;0.70;;
283;SDS011;125;52.516;13.426;2024-01-15T04:56:24;6.70;;;3.03;;
283;SDS011;125;52.516;13.426;2024-01-15T04:58:52;2.07;;;1.93;;
283;SDS011;125;52.516;13.426;2024-01-15T05:01:19;0.90;;;0.90;;
283;SDS011;125;52.516;13.426;2024-01-15T05:03:46;0.90;;;0.80;;
283;SDS011;125;52.516;13.426;2024-01-15T05:06:14;0.87;;;0.60;;
283;SDS011;125;52.516;13.426;2024-01-15T05:08:41;1.63;;;1.20;;
283;SDS011;125;52.516;13.426;2024-01-15T05:11:08;1.27;;;0.87;;
283;SDS011;125;52.516;13.426;2024-01-15T05:13:35;1.77;;;1.27;;
283;SDS011;125;52.516;13.426;2024-01-15T05:16:03;0.97;;;0.93;;
283;SDS011;125;52.516;13.426;2024-01-15T05:18:31;0.80;;;0.50;;
283;SDS011;125;52.516;13.426;2024-01-15T05:20:58;4.80;;;2.30;;
283;SDS011;125;52.516;13.426;2024-01-15T05:23:25;2.70;;;0.80;;
283;SDS011;125;52.516;13.426;2024-01-15T05:25:52;1.17;;;1.07;;
283;SDS011;125;52.516;13.426;2024-01-15T05:28:19;2.10;;;0.77;;
283;SDS011;125;52.516;13.426;2024-01-15T05:30:46;2.23;;;1.50;;
283;SDS011;125;52.516;13.426;2024-01-15T05:33:14;1.10;;;0.60;;
283;SDS011;125;52.516;13.426;2024-01-15T05:35:41;1.20;;;1.13;;
283;SDS011;125;52.516;13.426;2024-01-15T05:38:08;1.27;;;1.17;;
283;SDS011;125;52.516;13.426;2024-01-15T05:40:35;0.93;;;0.80;;
283;SDS011;125;52.516;13.426;2024-01-15T05:43:02;1.50;;;1.40;;
283;SDS011;125;52.516;13.426;2024-01-15T05:45:29;2.10;;;1.57;;
283;SDS011;125;52.516;13.426;2024-01-15T05:47:57;0.90;;;0.83;;
283;SDS011;125;52.516;13.426;2024-01-15T05:50:25;13.83;;;1.03;;
283;SDS011;125;52.516;13.426;2024-01-15T05:52:52;1.57;;;1.43;;
283;SDS011;125;52.516;13.426;2024-01-15T05:55:19;4.40;;;0.90;;
283;SDS011;125;52.516;13.426;2024-01-15T05:57:46;0.90;;;0.60;;
283;SDS011;125;52.516;13.426;2024-01-15T06:00:13;1.10;;;0.97;;
283;SDS011;125;52.516;13.426;2024-01-15T06:02:40;3.57;;;0.83;;
283;SDS011;125;52.516;13.426;2024-01-15T06:05:07;1.10;;;0.60;;
283;SDS011;125;52.516;13.426;2024-01-15T06:07:36;0.93;;;0.93;;
283;SDS011;125;52.516;13.426;2024-01-15T06:10:03;1.77;;;1.47;;
283;SDS011;125;52.516;13.426;2024-01-15T06:12:30;0.70;;;0.40;;
283;SDS011;125;52.516;13.426;2024-01-15T06:14:58;0.70;;;0.40;;
283;SDS011;125;52.516;13.426;2024-01-15T06:17:25;1.23;;;1.03;;
283;SDS011;125;52.516;13.426;2024-01-15T06:19:52;1.00;;;0.80;;
283;SDS011;125;52.516;13.426;2024-01-15T06:22:19;2.60;;;1.70;;
283;SDS011;125;52.516;13.426;2024-01-15T06:24:47;0.80;;;0.50;;
283;SDS011;125;52.516;13.426;2024-01-15T06:27:14;0.70;;;0.43;;
283;SDS011;125;52.516;13.426;2024-01-15T06:29:44;1.83;;;1.80;;
283;SDS011;125;52.516;13.426;2024-01-15T06:32:12;0.70;;;0.50;;
283;SDS011;125;52.516;13.426;2024-01-15T06:34:39;1.40;;;1.33;;
283;SDS011;125;52.516;13.426;2024-01-15T06:37:06;0.83;;;0.80;;
283;SDS011;125;52.516;13.426;2024-01-15T06:39:33;0.80;;;0.60;;
283;SDS011;125;52.516;13.426;2024-01-15T06:42:02;1.07;;;0.67;;
283;SDS011;125;52.516;13.426;2024-01-15T06:44:29;1.57;;;0.70;;
283;SDS011;125;52.516;13.426;2024-01-15T06:46:56;0.90;;;0.60;;
283;SDS011;125;52.516;13.426;2024-01-15T06:49:27;1.10;;;1.03;;
283;SDS011;125;52.516;13.426;2024-01-15T06:51:54;0.80;;;0.60;;
283;SDS011;125;52.516;13.426;2024-01-15T06:54:21;0.80;;;0.60;;
283;SDS011;125;52.516;13.426;2024-01-15T06:56:48;0.70;;;0.50;;
283;SDS011;125;52.516;13.426;2024-01-15T06:59:17;0.90;;;0.90;;
283;SDS011;125;52.516;13.426;2024-01-15T07:01:44;0.70;;;0.40;;
283;SDS011;125;52.516;13.426;2024-01-15T07:04:11;0.70;;;0.50;;
283;SDS011;125;52.516;13.426;2024-01-15T07:06:38;0.87;;;0.73;;
283;SDS011;125;52.516;13.426;2024-01-15T07:09:05;3.73;;;0.80;;
283;SDS011;125;52.516;13.426;2024-01-15T07:11:34;2.30;;;1.23;;
283;SDS011;125;52.516;13.426;2024-01-15T07:14:00;0.80;;;0.50;;
283;SDS011;125;52.516;13.426;2024-01-15T07:16:29;0.80;;;0.60;;
283;SDS011;125;52.516;13.426;2024-01-15T07:18:56;1.43;;;1.17;;
283;SDS011;125;52.516;13.426;2024-01-15T07:21:23;0.70;;;0.40;;
283;SDS011;125;52.516;13.426;2024-01-15T07:23:50;2.80;;;1.20;;
283;SDS011;125;52.516;13.426;2024-01-15T07:26:17;0.80;;;0.53;;
283;SDS011;125;52.516;13.426;2024-01-15T07:28:44;1.47;;;1.23;;
283;SDS011;125;52.516;13.426;2024-01-15T07:31:10;0.80;;;0.70;;
283;SDS011;125;52.516;13.426;2024-01-15T07:33:39;3.10;;;0.80;;
283;SDS011;125;52.516;13.426;2024-01-15T07:36:06;1.90;;;1.03;;
283;SDS011;125;52.516;13.426;2024-01-15T07:38:33;0.90;;;0.80;;
283;SDS011;125;52.516;13.426;2024-01-15T07:41:00;0.80;;;0.60;;
283;SDS011;125;52.516;13.426;2024-01-15T07:43:27;2.53;;;2.00;;
283;SDS011;125;52.516;13.426;2024-01-15T07:45:54;0.80;;;0.63;;
283;SDS011;125;52.516;13.426;2024-01-15T07:48:22;1.63;;;0.83;;
283;SDS011;125;52.516;13.426;2024-01-15T07:50:50;1.03;;;0.90;;
283;SDS011;125;52.516;13.426;2024-01-15T07:53:17;1.57;;;0.70;;
283;SDS011;125;52.516;13.426;2024-01-15T07:55:44;0.70;;;0.40;;
283;SDS011;125;52.516;13.426;2024-01-15T07:58:12;0.70;;;0.40;;
283;SDS011;125;52.516;13.426;2024-01-15T08:00:39;4.83;;;1.53;;
283;SDS011;125;52.516;13.426;2024-01-15T08:03:06;4.23;;;1.03;;
283;SDS011;125;52.516;13.426;2024-01-15T08:05:32;0.70;;;0.47;;
283;SDS011;125;52.516;13.426;2024-01-15T08:08:01;5.50;;;1.80;;
283;SDS011;125;52.516;13.426;2024-01-15T08:10:28;1.40;;;1.30;;
283;SDS011;125;52.516;13.426;2024-01-15T08:12:55;3.37;;;1.73;;
283;SDS011;125;52.516;13.426;2024-01-15T08:15:22;5.50;;;2.10;;
283;SDS011;125;52.516;13.426;2024-01-15T08:17:49;1.23;;;1.13;;
283;SDS011;125;52.516;13.426;2024-01-15T08:20:17;0.80;;;0.80;;
283;SDS011;125;52.516;13.426;2024-01-15T08:22:44;0.70;;;0.40;;
283;SDS011;125;52.516;13.426;2024-01-15T08:25:13;2.30;;;0.93;;
283;SDS011;125;52.516;13.426;2024-01-15T08:27:40;0.70;;;0.50;;
283;SDS011;125;52.516;13.426;2024-01-15T08:30:08;0.80;;;0.57;;
283;SDS011;125;52.516;13.426;2024-01-15T08:32:35;0.80;;;0.50;;
283;SDS011;125;52.516;13.426;2024-01-15T08:35:07;0.80;;;0.60;;
283;SDS011;125;52.516;13.426;2024-01-15T08:37:42;0.80;;;0.60;;
283;SDS011;125;52.516;13.426;2024-01-15T08:40:09;1.63;;;0.90;;
283;SDS011;125;52.516;13.426;2024-01-15T08:42:38;6.43;;;1.63;;
283;SDS011;125;52.516;13.426;2024-01-15T08:45:05;0.80;;;0.80;;
283;SDS011;125;52.516;13.426;2024-01-15T08:47:32;0.80;;;0.50;;
283;SDS011;125;52.516;13.426;2024-01-15T08:49:59;4.60;;;1.37;;
283;SDS011;125;52.516;13.426;2024-01-15T08:52:26;1.00;;;0.70;;
283;SDS011;125;52.516;13.426;2024-01-15T08:54:53;1.02;;;0.50;;
283;SDS011;125;52.516;13.426;2024-01-15T08:57:21;0.90;;;0.80;;
283;SDS011;125;52.516;13.426;2024-01-15T08:59:49;0.83;;;0.63;;
283;SDS011;125;52.516;13.426;2024-01-15T09:02:17;1.87;;;0.80;;
283;SDS011;125;52.516;13.426;2024-01-15T09:04:44;0.70;;;0.40;;
283;SDS011;125;52.516;13.426;2024-01-15T09:07:11;24.07;;;1.50;;
283;SDS011;125;52.516;13.426;2024-01-15T09:09:38;0.70;;;0.43;;
283;SDS011;125;52.516;13.426;2024-01-15T09:12:07;1.10;;;1.03;;
283;SDS011;125;52.516;13.426;2024-01-15T09:14:34;4.93;;;2.10;;
283;SDS011;125;52.516;13.426;2024-01-15T09:17:03;3.10;;;0.87;;
283;SDS011;125;52.516;13.426;2024-01-15T09:19:30;0.90;;;0.90;;
283;SDS011;125;52.516;13.426;2024-01-15T09:21:57;0.70;;;0.40;;
283;SDS011;125;52.516;13.426;2024-01-15T09:24:24;3.37;;;0.93;;
283;SDS011;125;52.516;13.426;2024-01-15T09:26:51;0.70;;;0.40;;
283;SDS011;125;52.516;13.426;2024-01-15T09:29:18;1.93;;;0.50;;
283;SDS011;125;52.516;13.426;2024-01-15T09:31:45;0.70;;;0.40;;
283;SDS011;125;52.516;13.426;2024-01-15T09:34:13;2.97;;;1.67;;
283;SDS011;125;52.516;13.426;2024-01-15T09:36:40;1.37;;;0.90;;
283;SDS011;125;52.516;13.426;2024-01-15T09:39:08;0.80;;;0.40;;
283;SDS011;125;52.516;13.426;2024-01-15T09:41:36;0.80;;;0.50;;
283;SDS011;125;52.516;13.426;2024-01-15T09:44:03;0.90;;;0.70;;
283;SDS011;125;52.516;13.426;2024-01-15T09:46:30;2.40;;;0.50;;
283;SDS011;125;52.516;13.426;2024-01-15T09:48:58;3.67;;;2.67;;
283;SDS011;125;52.516;13.426;2024-01-15T09:51:26;1.03;;;0.50;;
283;SDS011;125;52.516;13.426;2024-01-15T09:53:54;0.70;;;0.47;;
283;SDS011;125;52.516;13.426;2024-01-15T09:56:22;1.10;;;1.00;;
283;SDS011;125;52.516;13.426;2024-01-15T09:58:50;1.00;;;0.80;;
283;SDS011;125;52.516;13.426;2024-01-15T10:01:17;2.80;;;0.70;;
283;SDS011;125;52.516;13.426;2024-01-15T10:03:46;0.77;;;0.57;;
283;SDS011;125;52.516;13.426;2024-01-15T10:06:14;3.07;;;1.53;;
283;SDS011;125;52.516;13.426;2024-01-15T10:08:43;1.33;;;0.67;;
283;SDS011;125;52.516;13.426;2024-01-15T10:11:13;0.70;;;0.40;;
283;SDS011;125;52.516;13.426;2024-01-15T10:13:41;1.00;;;0.93;;
283;SDS011;125;52.516;13.426;2024-01-15T10:16:08;1.27;;;0.93;;
283;SDS011;125;52.516;13.426;2024-01-15T10:18:36;0.80;;;0.50;;
283;SDS011;125;52.516;13.426;2024-01-15T10:21:04;0.80;;;0.60;;
283;SDS011;125;52.516;13.426;2024-01-15T10:23:32;1.00;;;0.77;;
283;SDS011;125;52.516;13.426;2024-01-15T10:26:02;2.80;;;0.55;;
283;SDS011;125;52.516;13.426;2024-01-15T10:28:30;1.20;;;0.63;;
283;SDS011;125;52.516;13.426;2024-01-15T10:30:58;5.70;;;0.77;;
283;SDS011;125;52.516;13.426;2024-01-15T10:33:25;1.40;;;0.70;;
283;SDS011;125;52.516;13.426;2024-01-15T10:35:53;0.70;;;0.40;;
283;SDS011;125;52.516;13.426;2024-01-15T10:38:20;2.60;;;0.93;;
283;SDS011;125;52.516;13.426;2024-01-15T10:40:48;1.60;;;0.93;;
283;SDS011;125;52.516;13.426;2024-01-15T10:43:19;0.80;;;0.50;;
283;SDS011;125;52.516;13.426;2024-01-15T10:45:46;0.80;;;0.70;;
283;SDS011;125;52.516;13.426;2024-01-15T10:48:13;0.70;;;0.50;;
283;SDS011;125;52.516;13.426;2024-01-15T10:50:40;2.20;;;1.63;;
283;SDS011;125;52.516;13.426;2024-01-15T10:53:08;0.80;;;0.60;;
283;SDS011;125;52.516;13.426;2024-01-15T10:55:35;1.53;;;0.70;;
283;SDS011;125;52.516;13.426;2024-01-15T10:58:04;3.40;;;1.23;;
283;SDS011;125;52.516;13.426;2024-01-15T11:00:33;1.67;;;0.93;;
283;SDS011;125;52.516;13.426;2024-01-15T11:03:02;0.80;;;0.50;;
283;SDS011;125;52.516;13.426;2024-01-15T11:05:32;0.70;;;0.40;;
283;SDS011;125;52.516;13.426;2024-01-15T11:07:59;0.80;;;0.70;;
283;SDS011;125;52.516;13.426;2024-01-15T11:10:40;0.80;;;0.40;;
283;SDS011;125;52.516;13.426;2024-01-15T11:13:08;0.70;;;0.50;;
283;SDS011;125;52.516;13.426;2024-01-15T11:18:19;0.70;;;0.40;;
283;SDS011;125;52.516;13.426;2024-01-15T11:23:41;0.70;;;0.47;;
283;SDS011;125;52.516;13.426;2024-01-15T11:28:51;0.70;;;0.40;;
283;SDS011;125;52.516;13.426;2024-01-15T11:31:18;3.10;;;0.50;;
283;SDS011;125;52.516;13.426;2024-01-15T11:33:49;0.90;;;0.50;;
283;SDS011;125;52.516;13.426;2024-01-15T11:36:16;2.20;;;1.43;;
283;SDS011;125;52.516;13.426;2024-01-15T11:38:43;0.80;;;0.70;;
283;SDS011;125;52.516;13.426;2024-01-15T11:41:13;0.80;;;0.60;;
283;SDS011;125;52.516;13.426;2024-01-15T11:43:40;1.00;;;0.90;;
283;SDS011;125;52.516;13.426;2024-01-15T11:46:09;2.10;;;1.03;;
283;SDS011;125;52.516;13.426;2024-01-15T11:48:42;1.13;;;1.03;;
283;SDS011;125;52.516;13.426;2024-01-15T11:51:11;0.80;;;0.50;;
283;SDS011;125;52.516;13.426;2024-01-15T11:53:42;2.70;;;1.43;;
283;SDS011;125;52.516;13.426;2024-01-15T11:56:11;0.90;;;0.73;;
283;SDS011;125;52.516;13.426;2024-01-15T11:58:41;0.70;;;0.40;;
283;SDS011;125;52.516;13.426;2024-01-15T12:01:08;0.90;;;0.50;;
283;SDS011;125;52.516;13.426;2024-01-15T12:03:35;1.00;;;0.67;;
283;SDS011;125;52.516;13.426;2024-01-15T12:06:04;1.10;;;0.50;;
283;SDS011;125;52.516;13.426;2024-01-15T12:08:33;0.97;;;0.67;;
283;SDS011;125;52.516;13.426;2024-01-15T12:11:00;2.80;;;1.67;;
283;SDS011;125;52.516;13.426;2024-01-15T12:13:28;1.00;;;0.87;;
283;SDS011;125;52.516;13.426;2024-01-15T12:15:55;0.97;;;0.97;;
283;SDS011;125;52.516;13.426;2024-01-15T12:18:22;1.70;;;1.60;;
283;SDS011;125;52.516;13.426;2024-01-15T12:20:49;1.63;;;1.53;;
283;SDS011;125;52.516;13.426;2024-01-15T12:23:17;0.93;;;0.70;;
283;SDS011;125;52.516;13.426;2024-01-15T12:25:45;0.70;;;0.40;;
283;SDS011;125;52.516;13.426;2024-01-15T12:28:12;0.80;;;0.60;;
283;SDS011;125;52.516;13.426;2024-01-15T12:30:39;0.90;;;0.80;;
283;SDS011;125;52.516;13.426;2024-01-15T12:33:07;1.00;;;0.73;;
283;SDS011;125;52.516;13.426;2024-01-15T12:35:34;0.80;;;0.50;;
283;SDS011;125;52.516;13.426;2024-01-15T12:38:03;0.80;;;0.57;;
283;SDS011;125;52.516;13.426;2024-01-15T12:40:30;0.80;;;0.50;;
283;SDS011;125;52.516;13.426;2024-01-15T12:42:59;0.70;;;0.40;;
283;SDS011;125;52.516;13.426;2024-01-15T12:45:26;0.70;;;0.40;;
283;SDS011;125;52.516;13.426;2024-01-15T12:47:53;0.80;;;0.50;;
283;SDS011;125;52.516;13.426;2024-01-15T12:50:23;0.80;;;0.60;;
283;SDS011;125;52.516;13.426;2024-01-15T12:52:50;2.17;;;0.90;;
283;SDS011;125;52.516;13.426;2024-01-15T12:55:17;1.70;;;1.60;;
283;SDS011;125;52.516;13.426;2024-01-15T12:57:44;0.80;;;0.60;;
283;SDS011;125;52.516;13.426;2024-01-15T13:00:13;1.30;;;1.17;;
283;SDS011;125;52.516;13.426;2024-01-15T13:02:41;0.80;;;0.50;;
283;SDS011;125;52.516;13.426;2024-01-15T13:05:08;1.20;;;0.70;;
283;SDS011;125;52.516;13.426;2024-01-15T13:07:36;0.80;;;0.43;;
283;SDS011;125;52.516;13.426;2024-01-15T13:10:03;1.17;;;1.03;;
283;SDS011;125;52.516;13.426;2024-01-15T13:12:30;0.70;;;0.40;;
283;SDS011;125;52.516;13.426;2024-01-15T13:14:58;0.90;;;0.60;;
283;SDS011;125;52.516;13.426;2024-01-15T13:17:26;1.00;;;0.60;;
283;SDS011;125;52.516;13.426;2024-01-15T13:19:53;0.73;;;0.50;;
283;SDS011;125;52.516;13.426;2024-01-15T13:22:20;1.70;;;1.00;;
283;SDS011;125;52.516;13.426;2024-01-15T13:24:47;0.80;;;0.67;;
283;SDS011;125;52.516;13.426;2024-01-15T13:27:14;1.00;;;0.60;;
283;SDS011;125;52.516;13.426;2024-01-15T13:29:42;1.17;;;0.90;;
283;SDS011;125;52.516;13.426;2024-01-15T13:32:09;0.70;;;0.40;;
283;SDS011;125;52.516;13.426;2024-01-15T13:34:40;1.77;;;1.67;;
283;SDS011;125;52.516;13.426;2024-01-15T13:37:07;0.70;;;0.40;;
283;SDS011;125;52.516;13.426;2024-01-15T13:39:34;1.67;;;0.60;;
283;SDS011;125;52.516;13.426;2024-01-15T13:42:02;1.63;;;1.13;;
283;SDS011;125;52.516;13.426;2024-01-15T13:44:29;0.97;;;0.83;;
283;SDS011;125;52.516;13.426;2024-01-15T13:46:56;0.80;;;0.50;;
283;SDS011;125;52.516;13.426;2024-01-15T13:49:23;1.50;;;1.20;;
283;SDS011;125;52.516;13.426;2024-01-15T13:51:51;1.27;;;0.70;;
283;SDS011;125;52.516;13.426;2024-01-15T13:54:18;1.63;;;0.50;;
283;SDS011;125;52.516;13.426;2024-01-15T13:56:45;0.70;;;0.50;;
283;SDS011;125;52.516;13.426;2024-01-15T13:59:13;1.17;;;0.70;;
283;SDS011;125;52.516;13.426;2024-01-15T14:01:40;0.80;;;0.57;;
283;SDS011;125;52.516;13.426;2024-01-15T14:04:07;0.70;;;0.60;;
283;SDS011;125;52.516;13.426;2024-01-15T14:06:34;0.70;;;0.40;;
283;SDS011;125;52.516;13.426;2024-01-15T14:09:02;2.57;;;1.17;;
283;SDS011;125;52.516;13.426;2024-01-15T14:11:30;0.80;;;0.77;;
283;SDS011;125;52.516;13.426;2024-01-15T14:13:56;0.70;;;0.40;;
283;SDS011;125;52.516;13.426;2024-01-15T14:16:23;0.90;;;0.67;;
283;SDS011;125;52.516;13.426;2024-01-15T14:18:50;0.70;;;0.60;;
283;SDS011;125;52.516;13.426;2024-01-15T14:21:17;1.03;;;0.83;;
283;SDS011;125;52.516;13.426;2024-01-15T14:23:44;1.40;;;0.50;;
283;SDS011;125;52.516;13.426;2024-01-15T14:26:13;1.00;;;0.87;;
283;SDS011;125;52.516;13.426;2024-01-15T14:28:39;4.30;;;1.53;;
283;SDS011;125;52.516;13.426;2024-01-15T14:31:06;0.80;;;0.70;;
283;SDS011;125;52.516;13.426;2024-01-15T14:33:33;0.70;;;0.40;;
283;SDS011;125;52.516;13.426;2024-01-15T14:36:00;0.77;;;0.50;;
283;SDS011;125;52.516;13.426;2024-01-15T14:38:27;0.80;;;0.50;;
283;SDS011;125;52.516;13.426;2024-01-15T14:40:54;0.90;;;0.70;;
283;SDS011;125;52.516;13.426;2024-01-15T14:43:22;0.70;;;0.40;;
283;SDS011;125;52.516;13.426;2024-01-15T14:45:49;1.87;;;1.53;;
283;SDS011;125;52.516;13.426;2024-01-15T14:48:16;0.70;;;0.43;;
283;SDS011;125;52.516;13.426;2024-01-15T14:50:43;1.37;;;0.93;;
283;SDS011;125;52.516;13.426;2024-01-15T14:53:11;0.70;;;0.40;;
283;SDS011;125;52.516;13.426;2024-01-15T14:55:38;0.70;;;0.40;;
283;SDS011;125;52.516;13.426;2024-01-15T14:58:05;0.80;;;0.80;;
283;SDS011;125;52.516;13.426;2024-01-15T15:00:33;0.80;;;0.57;;
283;SDS011;125;52.516;13.426;2024-01-15T15:03:00;1.00;;;0.70;;
283;SDS011;125;52.516;13.426;2024-01-15T15:05:27;0.80;;;0.53;;
283;SDS011;125;52.516;13.426;2024-01-15T15:07:55;1.03;;;0.60;;
283;SDS011;125;52.516;13.426;2024-01-15T15:10:22;1.10;;;0.50;;
283;SDS011;125;52.516;13.426;2024-01-15T15:12:49;1.30;;;0.60;;
283;SDS011;125;52.516;13.426;2024-01-15T15:15:15;0.90;;;0.70;;
283;SDS011;125;52.516;13.426;2024-01-15T15:17:44;0.90;;;0.70;;
283;SDS011;125;52.516;13.426;2024-01-15T15:20:11;1.00;;;0.70;;
283;SDS011;125;52.516;13.426;2024-01-15T15:22:38;0.70;;;0.50;;
283;SDS011;125;52.516;13.426;2024-01-15T15:25:05;1.10;;;0.60;;
283;SDS011;125;52.516;13.426;2024-01-15T15:27:34;1.23;;;0.87;;
283;SDS011;125;52.516;13.426;2024-01-15T15:30:01;0.70;;;0.50;;
283;SDS011;125;52.516;13.426;2024-01-15T15:32:28;0.80;;;0.70;;
283;SDS011;125;52.516;13.426;2024-01-15T15:34:56;0.73;;;0.50;;
283;SDS011;125;52.516;13.426;2024-01-15T15:37:23;0.80;;;0.50;;
283;SDS011;125;52.516;13.426;2024-01-15T15:39:50;0.80;;;0.50;;